Harrisonville, Illinois
Current Conditions -  °F | °C
As of 4:53 PM on Wednesday 22 Oct 2014 (Local Time) from KCPS Reporting Station
Clear Clear  
Wind Chill: 18°   Ceiling: Unl
Heat Index: 18°   Visibility: 10mi
Dew Point:   Wind: 7mph
Humidity: 48%   Direction: 110°ESE
Pressure: 30.22"   Gusts: NA
Location:  38.2838°N, 90.3044°W
Report Text: KCPS 222153Z 11006KT 10SM CLR 18/07 A3022 RMK AO2 SLP234 T01780067
Loading
Personal Weather Stations






























Interactive Weather Map
Tropical Storm Tracking
New forecast layout! Learn more

10-Day Weather Forecast

Advertisements
Track Severe Weather on mobile